sensor_id;sensor_type;location;lat;lon;timestamp;pressure;altitude;pressure_sealevel;temperature;humidity
32083;BME280;18597;48.328;7.932;2023-02-20T00:00:56;100823.63;;;7.56;100.00
32083;BME280;18597;48.328;7.932;2023-02-20T00:03:22;100818.31;;;7.56;100.00
32083;BME280;18597;48.328;7.932;2023-02-20T00:05:48;100813.59;;;7.61;100.00
32083;BME280;18597;48.328;7.932;2023-02-20T00:08:14;100822.50;;;7.60;100.00
32083;BME280;18597;48.328;7.932;2023-02-20T00:10:40;100813.84;;;7.57;100.00
32083;BME280;18597;48.328;7.932;2023-02-20T00:13:06;100820.03;;;7.57;100.00
32083;BME280;18597;48.328;7.932;2023-02-20T00:15:32;100818.41;;;7.70;100.00
32083;BME280;18597;48.328;7.932;2023-02-20T00:17:57;100813.34;;;7.66;100.00
32083;BME280;18597;48.328;7.932;2023-02-20T00:20:24;100810.16;;;7.59;100.00
32083;BME280;18597;48.328;7.932;2023-02-20T00:22:51;100811.72;;;7.63;100.00
32083;BME280;18597;48.328;7.932;2023-02-20T00:25:19;100820.63;;;7.62;100.00
32083;BME280;18597;48.328;7.932;2023-02-20T00:27:45;100817.84;;;7.48;100.00
32083;BME280;18597;48.328;7.932;2023-02-20T00:30:17;100811.31;;;7.38;100.00
32083;BME280;18597;48.328;7.932;2023-02-20T00:32:47;100815.69;;;7.39;100.00
32083;BME280;18597;48.328;7.932;2023-02-20T00:35:14;100819.38;;;7.36;100.00
32083;BME280;18597;48.328;7.932;2023-02-20T00:37:40;100821.28;;;7.34;100.00
32083;BME280;18597;48.328;7.932;2023-02-20T00:40:07;100817.16;;;7.44;100.00
32083;BME280;18597;48.328;7.932;2023-02-20T00:42:33;100809.59;;;7.37;100.00
32083;BME280;18597;48.328;7.932;2023-02-20T00:44:59;100810.97;;;7.28;100.00
32083;BME280;18597;48.328;7.932;2023-02-20T00:47:25;100804.56;;;7.15;100.00
32083;BME280;18597;48.328;7.932;2023-02-20T00:49:51;100809.81;;;6.99;100.00
32083;BME280;18597;48.328;7.932;2023-02-20T00:52:17;100797.72;;;6.76;100.00
32083;BME280;18597;48.328;7.932;2023-02-20T00:54:43;100800.22;;;6.62;100.00
32083;BME280;18597;48.328;7.932;2023-02-20T00:57:08;100802.63;;;6.49;100.00
32083;BME280;18597;48.328;7.932;2023-02-20T00:59:34;100807.22;;;6.28;100.00
32083;BME280;18597;48.328;7.932;2023-02-20T01:02:00;100808.47;;;6.21;100.00
32083;BME280;18597;48.328;7.932;2023-02-20T01:04:26;100797.66;;;6.07;100.00
32083;BME280;18597;48.328;7.932;2023-02-20T01:06:52;100800.66;;;5.99;100.00
32083;BME280;18597;48.328;7.932;2023-02-20T01:09:17;100805.31;;;5.75;100.00
32083;BME280;18597;48.328;7.932;2023-02-20T01:11:44;100799.78;;;5.61;100.00
32083;BME280;18597;48.328;7.932;2023-02-20T01:14:12;100801.28;;;5.48;100.00
32083;BME280;18597;48.328;7.932;2023-02-20T01:16:48;100795.63;;;5.37;100.00
32083;BME280;18597;48.328;7.932;2023-02-20T01:19:16;100809.56;;;5.21;100.00
32083;BME280;18597;48.328;7.932;2023-02-20T01:21:42;100798.47;;;5.32;100.00
32083;BME280;18597;48.328;7.932;2023-02-20T01:24:08;100804.72;;;5.11;100.00
32083;BME280;18597;48.328;7.932;2023-02-20T01:26:34;100811.31;;;5.21;100.00
32083;BME280;18597;48.328;7.932;2023-02-20T01:29:02;100803.72;;;5.13;100.00
32083;BME280;18597;48.328;7.932;2023-02-20T01:31:28;100804.63;;;4.93;100.00
32083;BME280;18597;48.328;7.932;2023-02-20T01:33:54;100811.28;;;5.02;100.00
32083;BME280;18597;48.328;7.932;2023-02-20T01:36:20;100812.09;;;4.84;100.00
32083;BME280;18597;48.328;7.932;2023-02-20T01:38:46;100808.72;;;4.80;100.00
32083;BME280;18597;48.328;7.932;2023-02-20T01:41:15;100824.53;;;4.61;100.00
32083;BME280;18597;48.328;7.932;2023-02-20T01:43:41;100826.28;;;4.61;100.00
32083;BME280;18597;48.328;7.932;2023-02-20T01:49:05;100815.13;;;4.54;100.00
32083;BME280;18597;48.328;7.932;2023-02-20T01:51:37;100813.72;;;4.66;100.00
32083;BME280;18597;48.328;7.932;2023-02-20T01:54:08;100821.00;;;4.40;100.00
32083;BME280;18597;48.328;7.932;2023-02-20T01:56:36;100817.78;;;4.32;100.00
32083;BME280;18597;48.328;7.932;2023-02-20T01:59:02;100814.63;;;4.23;100.00
32083;BME280;18597;48.328;7.932;2023-02-20T02:01:31;100815.25;;;4.07;100.00
32083;BME280;18597;48.328;7.932;2023-02-20T02:04:01;100813.44;;;4.09;100.00
32083;BME280;18597;48.328;7.932;2023-02-20T02:06:29;100813.59;;;4.05;100.00
32083;BME280;18597;48.328;7.932;2023-02-20T02:09:02;100820.97;;;3.97;100.00
32083;BME280;18597;48.328;7.932;2023-02-20T02:11:32;100815.28;;;3.85;100.00
32083;BME280;18597;48.328;7.932;2023-02-20T02:13:58;100809.09;;;4.07;100.00
32083;BME280;18597;48.328;7.932;2023-02-20T02:23:32;100803.09;;;4.03;100.00
32083;BME280;18597;48.328;7.932;2023-02-20T02:30:02;100809.94;;;3.64;100.00
32083;BME280;18597;48.328;7.932;2023-02-20T02:33:19;100809.47;;;3.52;100.00
32083;BME280;18597;48.328;7.932;2023-02-20T02:36:32;100804.59;;;3.42;100.00
32083;BME280;18597;48.328;7.932;2023-02-20T02:39:43;100803.75;;;3.41;100.00
32083;BME280;18597;48.328;7.932;2023-02-20T02:45:08;100794.25;;;3.36;100.00
32083;BME280;18597;48.328;7.932;2023-02-20T02:48:21;100793.41;;;3.35;100.00
32083;BME280;18597;48.328;7.932;2023-02-20T02:50:37;100794.78;;;3.45;100.00
32083;BME280;18597;48.328;7.932;2023-02-20T02:53:08;100791.56;;;3.37;100.00
32083;BME280;18597;48.328;7.932;2023-02-20T02:55:34;100798.22;;;3.24;100.00
32083;BME280;18597;48.328;7.932;2023-02-20T02:58:02;100782.63;;;3.18;100.00
32083;BME280;18597;48.328;7.932;2023-02-20T03:00:39;100784.69;;;3.33;100.00
32083;BME280;18597;48.328;7.932;2023-02-20T03:03:27;100784.03;;;3.26;100.00
32083;BME280;18597;48.328;7.932;2023-02-20T03:06:05;100779.84;;;3.21;100.00
32083;BME280;18597;48.328;7.932;2023-02-20T03:09:02;100784.53;;;3.13;100.00
32083;BME280;18597;48.328;7.932;2023-02-20T03:11:32;100788.19;;;3.09;100.00
32083;BME280;18597;48.328;7.932;2023-02-20T03:14:21;100787.75;;;3.21;100.00
32083;BME280;18597;48.328;7.932;2023-02-20T03:20:10;100786.84;;;3.22;100.00
32083;BME280;18597;48.328;7.932;2023-02-20T03:22:49;100791.69;;;3.09;100.00
32083;BME280;18597;48.328;7.932;2023-02-20T03:25:43;100795.38;;;3.05;100.00
32083;BME280;18597;48.328;7.932;2023-02-20T03:28:23;100796.47;;;2.99;100.00
32083;BME280;18597;48.328;7.932;2023-02-20T03:31:00;100793.44;;;2.85;100.00
32083;BME280;18597;48.328;7.932;2023-02-20T03:33:36;100787.63;;;2.75;100.00
32083;BME280;18597;48.328;7.932;2023-02-20T03:36:31;100782.78;;;2.88;100.00
32083;BME280;18597;48.328;7.932;2023-02-20T03:39:24;100773.41;;;3.04;100.00
32083;BME280;18597;48.328;7.932;2023-02-20T03:42:12;100766.56;;;2.99;100.00
32083;BME280;18597;48.328;7.932;2023-02-20T03:45:00;100757.84;;;2.97;100.00
32083;BME280;18597;48.328;7.932;2023-02-20T03:47:28;100770.28;;;2.93;100.00
32083;BME280;18597;48.328;7.932;2023-02-20T03:49:57;100775.34;;;2.74;100.00
32083;BME280;18597;48.328;7.932;2023-02-20T03:52:24;100767.75;;;2.90;100.00
32083;BME280;18597;48.328;7.932;2023-02-20T03:54:50;100778.09;;;2.71;100.00
32083;BME280;18597;48.328;7.932;2023-02-20T03:57:24;100771.28;;;2.64;100.00
32083;BME280;18597;48.328;7.932;2023-02-20T03:59:56;100769.22;;;2.74;100.00
32083;BME280;18597;48.328;7.932;2023-02-20T04:02:30;100777.59;;;2.85;100.00
32083;BME280;18597;48.328;7.932;2023-02-20T04:05:02;100776.31;;;2.72;100.00
32083;BME280;18597;48.328;7.932;2023-02-20T04:07:45;100774.19;;;2.57;100.00
32083;BME280;18597;48.328;7.932;2023-02-20T04:10:21;100777.94;;;2.51;100.00
32083;BME280;18597;48.328;7.932;2023-02-20T04:12:50;100779.13;;;2.42;100.00
32083;BME280;18597;48.328;7.932;2023-02-20T04:15:18;100770.38;;;2.40;100.00
32083;BME280;18597;48.328;7.932;2023-02-20T04:17:50;100763.81;;;2.27;100.00
32083;BME280;18597;48.328;7.932;2023-02-20T04:20:18;100761.59;;;2.40;100.00
32083;BME280;18597;48.328;7.932;2023-02-20T04:22:47;100761.84;;;2.32;100.00
32083;BME280;18597;48.328;7.932;2023-02-20T04:25:58;100746.28;;;2.51;100.00
32083;BME280;18597;48.328;7.932;2023-02-20T04:28:25;100765.22;;;2.37;100.00
32083;BME280;18597;48.328;7.932;2023-02-20T04:30:51;100760.25;;;2.28;100.00
32083;BME280;18597;48.328;7.932;2023-02-20T04:33:18;100754.13;;;2.53;100.00
32083;BME280;18597;48.328;7.932;2023-02-20T04:35:44;100752.63;;;2.45;100.00
32083;BME280;18597;48.328;7.932;2023-02-20T04:38:11;100754.00;;;2.31;100.00
32083;BME280;18597;48.328;7.932;2023-02-20T04:40:37;100762.16;;;2.23;100.00
32083;BME280;18597;48.328;7.932;2023-02-20T04:43:03;100754.56;;;2.14;100.00
32083;BME280;18597;48.328;7.932;2023-02-20T04:45:29;100763.16;;;2.20;100.00
32083;BME280;18597;48.328;7.932;2023-02-20T04:47:55;100771.97;;;2.19;100.00
32083;BME280;18597;48.328;7.932;2023-02-20T04:50:25;100765.41;;;2.31;100.00
32083;BME280;18597;48.328;7.932;2023-02-20T04:52:52;100762.06;;;2.26;100.00
32083;BME280;18597;48.328;7.932;2023-02-20T04:55:18;100764.31;;;2.12;100.00
32083;BME280;18597;48.328;7.932;2023-02-20T04:57:46;100775.25;;;2.26;100.00
32083;BME280;18597;48.328;7.932;2023-02-20T05:00:14;100766.59;;;2.22;100.00
32083;BME280;18597;48.328;7.932;2023-02-20T05:02:41;100777.75;;;2.03;100.00
32083;BME280;18597;48.328;7.932;2023-02-20T05:05:18;100772.75;;;1.95;100.00
32083;BME280;18597;48.328;7.932;2023-02-20T05:07:45;100771.88;;;1.94;100.00
32083;BME280;18597;48.328;7.932;2023-02-20T05:10:17;100764.00;;;2.21;100.00
32083;BME280;18597;48.328;7.932;2023-02-20T05:12:43;100769.09;;;1.99;100.00
32083;BME280;18597;48.328;7.932;2023-02-20T05:15:09;100770.09;;;1.97;100.00
32083;BME280;18597;48.328;7.932;2023-02-20T05:17:35;100768.69;;;1.85;100.00
32083;BME280;18597;48.328;7.932;2023-02-20T05:20:03;100760.84;;;2.10;100.00
32083;BME280;18597;48.328;7.932;2023-02-20T05:22:29;100758.16;;;2.38;100.00
32083;BME280;18597;48.328;7.932;2023-02-20T05:24:54;100761.56;;;2.15;100.00
32083;BME280;18597;48.328;7.932;2023-02-20T05:27:22;100761.50;;;2.16;100.00
32083;BME280;18597;48.328;7.932;2023-02-20T05:29:52;100763.22;;;2.17;100.00
32083;BME280;18597;48.328;7.932;2023-02-20T05:32:21;100762.97;;;2.25;100.00
32083;BME280;18597;48.328;7.932;2023-02-20T05:34:47;100750.03;;;2.17;100.00
32083;BME280;18597;48.328;7.932;2023-02-20T05:37:16;100756.59;;;2.32;100.00
32083;BME280;18597;48.328;7.932;2023-02-20T05:39:43;100759.81;;;2.40;100.00
32083;BME280;18597;48.328;7.932;2023-02-20T05:42:08;100758.09;;;2.39;100.00
32083;BME280;18597;48.328;7.932;2023-02-20T05:44:35;100757.69;;;2.25;100.00
32083;BME280;18597;48.328;7.932;2023-02-20T05:47:01;100750.59;;;2.01;100.00
32083;BME280;18597;48.328;7.932;2023-02-20T05:49:28;100756.72;;;2.01;100.00
32083;BME280;18597;48.328;7.932;2023-02-20T05:51:56;100758.69;;;1.94;100.00
32083;BME280;18597;48.328;7.932;2023-02-20T05:54:22;100759.00;;;1.85;100.00
32083;BME280;18597;48.328;7.932;2023-02-20T05:56:48;100758.88;;;1.90;100.00
32083;BME280;18597;48.328;7.932;2023-02-20T05:59:19;100754.09;;;1.75;100.00
32083;BME280;18597;48.328;7.932;2023-02-20T06:01:46;100744.16;;;1.83;100.00
32083;BME280;18597;48.328;7.932;2023-02-20T06:04:12;100746.56;;;1.89;100.00
32083;BME280;18597;48.328;7.932;2023-02-20T06:06:40;100754.22;;;1.98;100.00
32083;BME280;18597;48.328;7.932;2023-02-20T06:09:09;100753.13;;;2.04;100.00
32083;BME280;18597;48.328;7.932;2023-02-20T06:11:35;100744.91;;;1.86;100.00
32083;BME280;18597;48.328;7.932;2023-02-20T06:14:03;100748.81;;;1.75;100.00
32083;BME280;18597;48.328;7.932;2023-02-20T06:16:30;100748.78;;;2.03;100.00
32083;BME280;18597;48.328;7.932;2023-02-20T06:18:57;100746.84;;;2.08;100.00
32083;BME280;18597;48.328;7.932;2023-02-20T06:21:25;100751.75;;;2.18;100.00
32083;BME280;18597;48.328;7.932;2023-02-20T06:23:53;100745.28;;;2.29;100.00
32083;BME280;18597;48.328;7.932;2023-02-20T06:26:21;100753.25;;;2.27;100.00
32083;BME280;18597;48.328;7.932;2023-02-20T06:28:47;100751.03;;;2.15;100.00
32083;BME280;18597;48.328;7.932;2023-02-20T06:31:22;100743.22;;;2.12;100.00
32083;BME280;18597;48.328;7.932;2023-02-20T06:33:48;100743.72;;;1.97;100.00
32083;BME280;18597;48.328;7.932;2023-02-20T06:36:25;100739.06;;;2.05;100.00
32083;BME280;18597;48.328;7.932;2023-02-20T06:38:52;100740.66;;;2.09;100.00
32083;BME280;18597;48.328;7.932;2023-02-20T06:41:18;100751.94;;;2.14;100.00
32083;BME280;18597;48.328;7.932;2023-02-20T06:43:44;100747.00;;;2.30;100.00
32083;BME280;18597;48.328;7.932;2023-02-20T06:46:10;100763.81;;;2.27;100.00
32083;BME280;18597;48.328;7.932;2023-02-20T06:48:47;100763.69;;;2.30;100.00
32083;BME280;18597;48.328;7.932;2023-02-20T06:51:20;100768.91;;;2.32;100.00
32083;BME280;18597;48.328;7.932;2023-02-20T06:53:46;100766.19;;;2.35;100.00
32083;BME280;18597;48.328;7.932;2023-02-20T06:56:18;100762.44;;;2.42;100.00
32083;BME280;18597;48.328;7.932;2023-02-20T06:58:47;100760.91;;;2.60;100.00
32083;BME280;18597;48.328;7.932;2023-02-20T07:01:14;100769.81;;;2.82;100.00
32083;BME280;18597;48.328;7.932;2023-02-20T07:03:40;100766.44;;;3.02;100.00
32083;BME280;18597;48.328;7.932;2023-02-20T07:06:06;100771.13;;;3.42;100.00
32083;BME280;18597;48.328;7.932;2023-02-20T07:08:32;100770.28;;;4.29;100.00
32083;BME280;18597;48.328;7.932;2023-02-20T07:10:58;100776.34;;;4.94;100.00
32083;BME280;18597;48.328;7.932;2023-02-20T07:13:24;100764.69;;;5.56;100.00
32083;BME280;18597;48.328;7.932;2023-02-20T07:15:49;100769.91;;;6.49;100.00
32083;BME280;18597;48.328;7.932;2023-02-20T07:18:15;100766.31;;;7.66;100.00
32083;BME280;18597;48.328;7.932;2023-02-20T07:20:43;100767.34;;;8.87;100.00
32083;BME280;18597;48.328;7.932;2023-02-20T07:23:09;100765.44;;;10.01;100.00
32083;BME280;18597;48.328;7.932;2023-02-20T07:25:35;100766.38;;;10.94;98.79
32083;BME280;18597;48.328;7.932;2023-02-20T07:28:00;100761.59;;;11.87;86.65
32083;BME280;18597;48.328;7.932;2023-02-20T07:30:26;100762.34;;;12.13;68.57
32083;BME280;18597;48.328;7.932;2023-02-20T07:32:52;100766.59;;;11.91;72.40
32083;BME280;18597;48.328;7.932;2023-02-20T07:35:18;100765.66;;;11.80;62.53
32083;BME280;18597;48.328;7.932;2023-02-20T07:37:44;100766.00;;;12.12;58.83
32083;BME280;18597;48.328;7.932;2023-02-20T07:40:11;100765.44;;;12.19;57.36
32083;BME280;18597;48.328;7.932;2023-02-20T07:42:37;100763.81;;;11.31;60.07
32083;BME280;18597;48.328;7.932;2023-02-20T07:45:03;100769.66;;;10.33;66.37
32083;BME280;18597;48.328;7.932;2023-02-20T07:47:29;100763.34;;;10.61;67.13
32083;BME280;18597;48.328;7.932;2023-02-20T07:49:54;100759.34;;;11.19;62.77
32083;BME280;18597;48.328;7.932;2023-02-20T07:52:20;100750.13;;;11.23;62.08
32083;BME280;18597;48.328;7.932;2023-02-20T07:54:46;100758.75;;;12.01;60.42
32083;BME280;18597;48.328;7.932;2023-02-20T07:57:13;100749.31;;;13.36;55.45
32083;BME280;18597;48.328;7.932;2023-02-20T07:59:40;100756.47;;;14.46;52.47
32083;BME280;18597;48.328;7.932;2023-02-20T08:02:06;100748.44;;;15.18;49.87
32083;BME280;18597;48.328;7.932;2023-02-20T08:04:32;100747.03;;;15.75;48.74
32083;BME280;18597;48.328;7.932;2023-02-20T08:06:57;100750.25;;;16.58;45.99
32083;BME280;18597;48.328;7.932;2023-02-20T08:09:23;100741.09;;;17.54;45.23
32083;BME280;18597;48.328;7.932;2023-02-20T08:11:49;100734.16;;;18.78;43.01
32083;BME280;18597;48.328;7.932;2023-02-20T08:14:15;100732.38;;;19.73;38.97
32083;BME280;18597;48.328;7.932;2023-02-20T08:16:41;100728.13;;;20.37;39.13
32083;BME280;18597;48.328;7.932;2023-02-20T08:19:07;100733.94;;;20.58;38.02
32083;BME280;18597;48.328;7.932;2023-02-20T08:21:33;100728.03;;;19.96;38.71
32083;BME280;18597;48.328;7.932;2023-02-20T08:23:58;100732.63;;;18.75;39.17
32083;BME280;18597;48.328;7.932;2023-02-20T08:26:24;100741.19;;;16.78;43.54
32083;BME280;18597;48.328;7.932;2023-02-20T08:28:51;100731.19;;;15.21;47.70
32083;BME280;18597;48.328;7.932;2023-02-20T08:31:18;100742.28;;;13.89;50.85
32083;BME280;18597;48.328;7.932;2023-02-20T08:33:44;100740.22;;;13.15;55.10
32083;BME280;18597;48.328;7.932;2023-02-20T08:36:10;100749.66;;;12.63;58.44
32083;BME280;18597;48.328;7.932;2023-02-20T08:38:37;100748.34;;;12.33;61.32
32083;BME280;18597;48.328;7.932;2023-02-20T08:41:07;100746.41;;;12.11;63.67
32083;BME280;18597;48.328;7.932;2023-02-20T08:43:36;100752.34;;;11.91;66.29
32083;BME280;18597;48.328;7.932;2023-02-20T08:46:05;100744.78;;;11.72;68.83
32083;BME280;18597;48.328;7.932;2023-02-20T08:48:30;100747.19;;;11.51;71.34
32083;BME280;18597;48.328;7.932;2023-02-20T08:50:56;100734.47;;;11.29;72.43
32083;BME280;18597;48.328;7.932;2023-02-20T08:53:22;100734.91;;;11.10;74.20
32083;BME280;18597;48.328;7.932;2023-02-20T08:55:48;100734.06;;;10.84;75.68
32083;BME280;18597;48.328;7.932;2023-02-20T08:58:21;100734.03;;;10.72;78.06
32083;BME280;18597;48.328;7.932;2023-02-20T09:00:48;100735.34;;;10.66;81.01
32083;BME280;18597;48.328;7.932;2023-02-20T09:03:14;100733.38;;;10.43;82.08
32083;BME280;18597;48.328;7.932;2023-02-20T09:05:41;100729.25;;;10.24;83.22
32083;BME280;18597;48.328;7.932;2023-02-20T09:08:08;100730.59;;;10.17;84.29
32083;BME280;18597;48.328;7.932;2023-02-20T09:10:34;100726.81;;;10.07;85.84
32083;BME280;18597;48.328;7.932;2023-02-20T09:13:01;100729.94;;;9.87;88.45
32083;BME280;18597;48.328;7.932;2023-02-20T09:15:27;100720.31;;;9.84;90.05
32083;BME280;18597;48.328;7.932;2023-02-20T09:17:54;100720.78;;;9.91;91.31
32083;BME280;18597;48.328;7.932;2023-02-20T09:20:21;100722.28;;;9.95;92.67
32083;BME280;18597;48.328;7.932;2023-02-20T09:22:50;100713.88;;;10.01;92.68
32083;BME280;18597;48.328;7.932;2023-02-20T09:25:17;100719.66;;;10.08;93.52
32083;BME280;18597;48.328;7.932;2023-02-20T09:27:43;100713.59;;;10.06;94.63
32083;BME280;18597;48.328;7.932;2023-02-20T09:30:10;100711.75;;;10.06;95.06
32083;BME280;18597;48.328;7.932;2023-02-20T09:32:38;100720.81;;;10.04;95.95
32083;BME280;18597;48.328;7.932;2023-02-20T09:35:04;100709.69;;;9.97;97.42
32083;BME280;18597;48.328;7.932;2023-02-20T09:37:30;100710.63;;;9.96;99.15
32083;BME280;18597;48.328;7.932;2023-02-20T09:39:55;100705.75;;;10.02;99.23
32083;BME280;18597;48.328;7.932;2023-02-20T09:45:33;100693.53;;;10.13;98.99
32083;BME280;18597;48.328;7.932;2023-02-20T09:51:09;100692.97;;;10.47;92.84
32083;BME280;18597;48.328;7.932;2023-02-20T09:56:36;100688.38;;;10.49;90.42
32083;BME280;18597;48.328;7.932;2023-02-20T09:59:12;100686.47;;;10.51;90.33
32083;BME280;18597;48.328;7.932;2023-02-20T10:01:51;100673.63;;;10.56;87.45
32083;BME280;18597;48.328;7.932;2023-02-20T10:04:27;100684.03;;;10.61;85.08
32083;BME280;18597;48.328;7.932;2023-02-20T10:09:31;100674.63;;;10.81;79.83
32083;BME280;18597;48.328;7.932;2023-02-20T10:12:17;100674.72;;;11.05;80.84
32083;BME280;18597;48.328;7.932;2023-02-20T10:18:45;100662.16;;;11.18;75.54
32083;BME280;18597;48.328;7.932;2023-02-20T10:22:29;100663.72;;;11.33;70.88
32083;BME280;18597;48.328;7.932;2023-02-20T10:25:19;100661.47;;;11.40;71.51
32083;BME280;18597;48.328;7.932;2023-02-20T10:28:04;100664.19;;;11.64;71.97
32083;BME280;18597;48.328;7.932;2023-02-20T10:30:43;100669.31;;;11.67;69.09
32083;BME280;18597;48.328;7.932;2023-02-20T10:33:32;100670.56;;;11.74;67.83
32083;BME280;18597;48.328;7.932;2023-02-20T10:36:43;100664.81;;;11.80;65.65
32083;BME280;18597;48.328;7.932;2023-02-20T10:39:16;100663.47;;;11.86;65.18
32083;BME280;18597;48.328;7.932;2023-02-20T10:42:09;100661.59;;;11.99;63.82
32083;BME280;18597;48.328;7.932;2023-02-20T10:44:47;100660.72;;;11.99;64.93
32083;BME280;18597;48.328;7.932;2023-02-20T10:47:31;100658.34;;;12.07;63.53
32083;BME280;18597;48.328;7.932;2023-02-20T10:50:16;100646.66;;;12.08;63.82
32083;BME280;18597;48.328;7.932;2023-02-20T10:52:54;100639.16;;;12.24;62.99
32083;BME280;18597;48.328;7.932;2023-02-20T10:55:38;100632.84;;;12.36;61.11
32083;BME280;18597;48.328;7.932;2023-02-20T10:58:14;100632.91;;;12.47;60.96
32083;BME280;18597;48.328;7.932;2023-02-20T11:00:49;100627.16;;;12.52;60.22
32083;BME280;18597;48.328;7.932;2023-02-20T11:03:26;100622.06;;;12.60;60.89
32083;BME280;18597;48.328;7.932;2023-02-20T11:05:56;100612.69;;;12.66;59.39
32083;BME280;18597;48.328;7.932;2023-02-20T11:08:23;100610.38;;;12.72;58.64
32083;BME280;18597;48.328;7.932;2023-02-20T11:10:55;100606.97;;;12.70;57.61
32083;BME280;18597;48.328;7.932;2023-02-20T11:13:24;100607.91;;;12.69;57.51
32083;BME280;18597;48.328;7.932;2023-02-20T11:15:54;100592.97;;;12.78;58.81
32083;BME280;18597;48.328;7.932;2023-02-20T11:18:30;100600.38;;;12.86;57.58
32083;BME280;18597;48.328;7.932;2023-02-20T11:20:56;100587.72;;;12.88;57.41
32083;BME280;18597;48.328;7.932;2023-02-20T11:23:43;100590.16;;;12.80;58.09
32083;BME280;18597;48.328;7.932;2023-02-20T11:26:30;100577.47;;;12.82;57.63
32083;BME280;18597;48.328;7.932;2023-02-20T11:29:15;100586.38;;;12.93;58.17
32083;BME280;18597;48.328;7.932;2023-02-20T11:31:43;100583.44;;;13.08;58.23
32083;BME280;18597;48.328;7.932;2023-02-20T11:34:20;100569.88;;;13.09;56.51
32083;BME280;18597;48.328;7.932;2023-02-20T11:36:52;100570.97;;;13.18;56.93
32083;BME280;18597;48.328;7.932;2023-02-20T11:39:24;100559.59;;;13.14;56.05
32083;BME280;18597;48.328;7.932;2023-02-20T11:42:21;100553.88;;;13.19;57.04
32083;BME280;18597;48.328;7.932;2023-02-20T11:45:13;100545.50;;;13.23;55.88
32083;BME280;18597;48.328;7.932;2023-02-20T11:47:39;100543.53;;;13.25;56.02
32083;BME280;18597;48.328;7.932;2023-02-20T11:50:20;100540.38;;;13.20;56.04
32083;BME280;18597;48.328;7.932;2023-02-20T11:53:04;100527.81;;;13.21;55.66
32083;BME280;18597;48.328;7.932;2023-02-20T11:55:33;100534.38;;;13.28;56.16
32083;BME280;18597;48.328;7.932;2023-02-20T11:57:59;100522.41;;;13.32;56.01
32083;BME280;18597;48.328;7.932;2023-02-20T12:00:42;100517.75;;;13.34;56.70
32083;BME280;18597;48.328;7.932;2023-02-20T12:05:46;100509.38;;;13.27;55.91
32083;BME280;18597;48.328;7.932;2023-02-20T12:08:42;100495.22;;;13.25;55.98
32083;BME280;18597;48.328;7.932;2023-02-20T12:11:18;100487.38;;;13.33;56.26
32083;BME280;18597;48.328;7.932;2023-02-20T12:13:48;100480.41;;;13.42;55.27
32083;BME280;18597;48.328;7.932;2023-02-20T12:17:18;100482.84;;;13.45;55.24
32083;BME280;18597;48.328;7.932;2023-02-20T12:19:58;100473.88;;;13.56;55.92
32083;BME280;18597;48.328;7.932;2023-02-20T12:22:40;100465.84;;;13.77;54.72
32083;BME280;18597;48.328;7.932;2023-02-20T12:25:23;100462.34;;;13.86;53.43
32083;BME280;18597;48.328;7.932;2023-02-20T12:28:16;100463.00;;;13.78;53.93
32083;BME280;18597;48.328;7.932;2023-02-20T12:31:18;100461.44;;;13.76;53.58
32083;BME280;18597;48.328;7.932;2023-02-20T12:34:02;100463.34;;;13.85;53.73
32083;BME280;18597;48.328;7.932;2023-02-20T12:36:45;100456.69;;;14.10;53.98
32083;BME280;18597;48.328;7.932;2023-02-20T12:48:57;100457.81;;;14.38;53.71
32083;BME280;18597;48.328;7.932;2023-02-20T12:55:07;100465.25;;;14.55;54.49
32083;BME280;18597;48.328;7.932;2023-02-20T12:57:58;100468.53;;;14.59;51.46
32083;BME280;18597;48.328;7.932;2023-02-20T13:03:02;100464.34;;;14.45;51.63
32083;BME280;18597;48.328;7.932;2023-02-20T13:05:32;100447.63;;;14.41;50.54
32083;BME280;18597;48.328;7.932;2023-02-20T13:08:08;100441.44;;;14.51;51.32
32083;BME280;18597;48.328;7.932;2023-02-20T13:10:55;100436.28;;;14.59;50.98
32083;BME280;18597;48.328;7.932;2023-02-20T13:13:25;100427.59;;;14.55;51.11
32083;BME280;18597;48.328;7.932;2023-02-20T13:16:05;100415.56;;;14.50;50.21
32083;BME280;18597;48.328;7.932;2023-02-20T13:19:20;100420.22;;;14.48;50.48
32083;BME280;18597;48.328;7.932;2023-02-20T13:21:48;100419.63;;;14.44;51.17
32083;BME280;18597;48.328;7.932;2023-02-20T13:24:36;100413.41;;;14.43;50.93
32083;BME280;18597;48.328;7.932;2023-02-20T13:27:06;100404.75;;;14.40;51.55
32083;BME280;18597;48.328;7.932;2023-02-20T13:29:37;100415.28;;;14.53;51.10
32083;BME280;18597;48.328;7.932;2023-02-20T13:32:26;100402.09;;;14.50;50.43
32083;BME280;18597;48.328;7.932;2023-02-20T13:34:53;100394.44;;;14.45;51.05
32083;BME280;18597;48.328;7.932;2023-02-20T13:43:26;100375.22;;;14.50;49.33
32083;BME280;18597;48.328;7.932;2023-02-20T13:51:28;100354.31;;;14.73;51.49
32083;BME280;18597;48.328;7.932;2023-02-20T13:54:22;100354.06;;;14.76;51.53
32083;BME280;18597;48.328;7.932;2023-02-20T13:56:56;100346.13;;;14.84;52.57
32083;BME280;18597;48.328;7.932;2023-02-20T13:59:25;100343.59;;;14.82;52.70
32083;BME280;18597;48.328;7.932;2023-02-20T14:02:01;100348.13;;;14.82;52.25
32083;BME280;18597;48.328;7.932;2023-02-20T14:04:28;100336.34;;;14.83;51.48
32083;BME280;18597;48.328;7.932;2023-02-20T14:06:55;100333.38;;;14.76;51.40
32083;BME280;18597;48.328;7.932;2023-02-20T14:09:25;100333.81;;;14.81;52.56
32083;BME280;18597;48.328;7.932;2023-02-20T14:11:54;100338.34;;;14.90;53.09
32083;BME280;18597;48.328;7.932;2023-02-20T14:14:31;100330.84;;;14.84;53.40
32083;BME280;18597;48.328;7.932;2023-02-20T14:19:43;100322.47;;;14.78;52.74
32083;BME280;18597;48.328;7.932;2023-02-20T14:22:30;100319.34;;;14.92;52.38
32083;BME280;18597;48.328;7.932;2023-02-20T14:25:21;100313.84;;;14.74;52.64